Weather observations for the past three days for
Flemingsburg Fleming-Mason Airport
Imperial (Metric)
Date Time (edt) Wind (mph) Vis. (mi.) Weather Sky Cond. Temperature (ºF) Relative Humidity Wind Chill (°F) Heat Index (°F) Pressure Precipitation (in)
Air Dwpt 6 hour altimeter (in) sea level (mb) 1 hr 3 hr 6 hr
Max. Min.
06 15:35 NE 9 G 16 10.00 Mostly Cloudy BKN003 BKN049 83.3 59.2 44% 83 29.99 0.0
06 15:15 NE 9 10.00 Partly Cloudy SCT003 82.8 59.4 45% 83 30 0.0
06 14:55 E 8 G 17 10.00 Partly Cloudy SCT003 82.6 59.2 45% 83 30 0.0
06 14:35 NE 8 10.00 Partly Cloudy SCT003 83.3 60.6 46% 84 30 0.0
06 14:15 E 10 G 16 10.00 Partly Cloudy SCT003 81.5 60.3 49% 82 30.01 0.0
06 13:55 NE 12 G 16 10.00 Mostly Cloudy SCT003 BKN035 81.9 62.1 81.9 69.6 51% 83 30.01 0.0
06 13:35 NE 10 G 17 10.00 Mostly Cloudy SCT003 BKN035 80.4 62.8 55% 82 30.01 0.0
06 13:15 NE 12 10.00 Partly Cloudy SCT003 80.4 63 55% 82 30.02 0.0
06 12:55 NE 12 10.00 Partly Cloudy SCT003 80.1 63.3 57% 82 30.02 0.0
06 12:35 E 9 10.00 Mostly Cloudy BKN003 79.5 64.2 60% 81 30.02 0.0
06 12:15 NE 8 10.00 Mostly Cloudy BKN003 79.5 64.9 61% 81 30.03 0.0
06 11:55 NE 10 10.00 Mostly Cloudy BKN003 78.3 65.5 65% 80 30.03 0.0
06 11:35 E 9 10.00 Mostly Cloudy SCT003 BKN016 77 66.4 70% 79 30.02 0.0
06 11:15 E 12 10.00 Overcast SCT003 OVC016 74.8 66.7 76% 30.03 0.0
06 10:55 NE 10 10.00 Overcast OVC014 74.1 66.7 78% 30.02 0.0
06 10:35 NE 9 10.00 Mostly Cloudy SCT003 BKN012 74.5 67.3 78% 30.02 0.0
06 10:15 E 9 10.00 Partly Cloudy SCT003 SCT012 SCT035 74.1 66.7 78% 30.02 0.0
06 09:55 E 10 10.00 Mostly Cloudy SCT003 BKN010 BKN035 72.7 66.6 81% 30.02 0.0
06 09:35 E 6 10.00 Overcast OVC010 71.1 66.4 85% 30.02 0.0
06 09:15 E 8 10.00 Overcast OVC008 71.6 67.3 86% 30.01 0.0
06 08:55 E 9 10.00 Overcast OVC008 69.8 66.6 90% 30.01 0.0
06 08:35 NE 9 10.00 Overcast OVC006 69.8 67.1 91% 30 0.0
06 08:15 E 12 10.00 Overcast OVC006 69.8 68 94% 29.99 0.0
06 07:55 NE 7 10.00 Overcast OVC006 70 68 71.6 69.3 93% 29.98 0.0
06 07:35 E 7 10.00 Overcast OVC008 69.8 68 94% 29.98 0.0
06 07:15 NE 8 7.00 Overcast OVC006 69.8 68.5 96% 29.97 0.0
06 06:35 NE 5 10.00 Overcast SCT004 SCT008 OVC045 69.4 68.5 97% 29.96 0.0
06 06:15 E 6 10.00 Mostly Cloudy BKN004 BKN008 69.3 68.7 98% 29.96 0.0
06 05:55 NE 7 10.00 Overcast OVC004 69.6 68.9 98% 29.96 0.0
06 05:35 NE 7 10.00 Overcast OVC004 69.8 68.9 97% 29.95 0.0
06 05:15 E 6 10.00 Mostly Cloudy BKN004 69.8 68.9 97% 29.94 0.0
06 04:55 E 7 10.00 Mostly Cloudy BKN002 69.8 68.9 97% 29.94 0.0
06 04:35 NE 8 10.00 Overcast OVC002 70 69.1 97% 29.93 0.0
06 04:15 NE 7 10.00 Mostly Cloudy BKN002 70 69.1 97% 29.93 0.0
06 03:55 NE 7 10.00 Partly Cloudy SCT002 70 69.1 97% 29.93 0.0
06 03:35 Calm 10.00 Partly Cloudy SCT002 SCT090 70.2 68.9 96% 29.94 0.0
06 03:15 Calm 10.00 Partly Cloudy SCT080 70.7 69.3 95% 29.93 0.0
06 02:55 Calm 10.00 Partly Cloudy SCT090 71.1 69.1 94% 29.94 0.0
06 02:35 Calm 10.00 Mostly Cloudy SCT050 SCT065 BKN090 71.6 69.4 93% 29.94 0.0
06 02:15 Calm 10.00 Overcast BKN050 OVC065 71.1 69.8 96% 29.95 0.0
06 01:55 Calm 10.00 Overcast OVC050 71.1 69.6 72.9 71.1 95% 29.96 0.0
06 01:35 Calm 10.00 Mostly Cloudy BKN050 BKN065 BKN070 71.6 69.4 93% 29.95 0.0
06 01:15 Calm 10.00 Mostly Cloudy BKN050 BKN065 BKN075 72 69.6 92% 29.95 0.0
06 00:55 Calm 10.00 Overcast OVC065 72.3 69.8 92% 29.95 0.0
06 00:35 Calm 10.00 Overcast OVC055 72.3 69.6 91% 29.94 0.0
06 00:15 Calm 10.00 Overcast SCT055 OVC065 72 69.8 93% 29.94 0.0
05 23:55 E 3 10.00 Mostly Cloudy SCT002 BKN065 71.8 69.8 94% 29.94 0.0
05 23:35 Calm 10.00 Partly Cloudy SCT050 71.8 69.8 94% 29.93 0.0
05 23:15 Calm 10.00 Mostly Cloudy SCT050 BKN065 72.5 70.2 92% 29.94 0.0
05 22:55 Calm 10.00 Overcast SCT003 OVC060 72.5 70.2 92% 29.94 0.0
05 22:35 NE 5 10.00 Mostly Cloudy BKN060 72.3 70.2 93% 29.94 0.0
05 22:15 E 3 10.00 Fair CLR 72.5 69.8 91% 29.93 0.0
05 21:55 E 6 10.00 Light Drizzle SCT044 SCT060 SCT090 72.9 70 91% 29.94 0.0
05 21:35 NE 7 10.00 Light Rain SCT049 BKN080 BKN100 72.5 69.6 91% 29.94 0.0
05 21:15 N 7 10.00 Mostly Cloudy SCT048 BKN055 BKN080 72.9 69.8 90% 29.94 0.0
05 20:55 Calm 10.00 Partly Cloudy SCT055 SCT065 72.3 69.8 92% 29.93 0.0
05 20:35 Calm 10.00 Partly Cloudy SCT055 72.5 69.6 91% 29.92 0.0
05 20:15 Calm 10.00 Fair CLR 72.7 69.4 90% 29.92 0.0
05 19:55 Calm 10.00 Fair CLR 72.7 69.3 91.8 72.5 89% 29.92 0.0 0.01
05 19:15 Calm 10.00 Partly Cloudy SCT070 SCT090 73.6 68.9 85% 29.92 0.0
05 18:55 NW 6 10.00 Partly Cloudy SCT090 SCT120 74.1 69.3 85% 29.93 0.0
05 18:35 W 8 10.00 Partly Cloudy SCT085 SCT120 73.4 69.1 86% 29.93 0.0
05 18:15 NW 7 10.00 Partly Cloudy SCT085 73.6 69.3 86% 29.93 0.0
05 17:55 Calm 10.00 Light Drizzle SCT070 SCT095 74.3 69.4 85% 29.92 0.0 0.01
05 17:35 W 5 10.00 Partly Cloudy SCT095 73.9 69.1 85% 29.92 0.0 0.01
05 17:15 W 8 10.00 Light Rain SCT040 SCT060 OVC095 72.7 68.2 86% 29.92 0.0 0.01
05 16:55 NW 15 G 21 10.00 Light Rain BKN050 BKN080 OVC095 76.5 67.1 73% 78 29.93 0.0
05 16:35 N 24 G 38 10.00 Overcast and Breezy BKN050 OVC065 88.3 68.2 51% 92 29.92 0.0
05 16:15 Calm 10.00 Mostly Cloudy SCT050 BKN065 BKN075 89.6 68 49% 93 29.92 0.0
05 15:55 S 3 10.00 Mostly Cloudy BKN065 BKN080 90 68.7 50% 94 29.91 0.0
05 13:55 W 3 10.00 Partly Cloudy SCT002 88.5 67.8 89.6 69.8 50% 92 29.96 0.0
05 13:35 W 7 10.00 Fair CLR 88.7 68.4 51% 93 29.97 0.0
05 13:15 Calm 10.00 Partly Cloudy SCT002 88.2 67.8 51% 92 29.97 0.0
05 12:55 N 5 10.00 Partly Cloudy SCT002 87.4 67.6 52% 91 29.98 0.0
05 12:35 SW 5 10.00 Fair CLR 85.8 67.5 54% 89 29.98 0.0
05 12:15 SW 7 10.00 Fair CLR 86.4 66.7 52% 89 29.97 0.0
05 11:55 SW 5 10.00 Fair CLR 84.6 66.4 55% 87 29.97 0.0
05 11:35 S 6 10.00 Fair CLR 83.3 66.2 56% 86 29.96 0.0
05 11:15 SW 7 10.00 Fair CLR 81.5 66.2 60% 84 29.97 0.0
05 10:55 SE 6 10.00 Fair CLR 79.3 66 64% 81 29.98 0.0
05 10:35 Calm 10.00 Fair CLR 76.1 66.2 72% 78 29.99 0.0
05 10:15 Calm 10.00 Fair CLR 73.8 67.3 80% 30 0.0
05 09:55 Calm 10.00 Fair CLR 72.9 67.8 84% 30.02 0.0
05 09:35 SW 3 10.00 Partly Cloudy SCT085 72.5 67.6 85% 30.04 0.0
05 09:15 W 9 10.00 Overcast SCT080 OVC085 70.9 67.1 88% 30.07 0.0
05 08:55 Calm 10.00 Overcast SCT002 BKN070 OVC120 70.7 66.7 87% 30.05 0.0
05 07:35 N 12 G 20 10.00 Rain SCT037 BKN050 OVC065 72.1 66.7 83% 30.04 0.0
05 07:15 N 16 G 28 10.00 Mostly Cloudy SCT016 SCT034 BKN065 71.1 68.5 92% 30.02 0.0
05 06:55 Calm 10.00 Partly Cloudy SCT075 70.7 68.2 92% 29.96 0.0
05 06:35 Calm 10.00 Fair CLR 70.3 68 92% 29.95 0.0
05 06:15 Calm 10.00 Fair CLR 71.6 68.5 90% 29.96 0.0
05 05:55 Calm 10.00 Fair CLR 70.5 68.2 92% 29.96 0.0
05 05:35 Calm 10.00 Fair CLR 70.9 68.4 92% 29.95 0.0
05 05:15 Calm 10.00 Fair CLR 71.6 68.4 90% 29.96 0.0
05 04:55 Calm 10.00 Fair CLR 72.5 68.2 86% 29.96 0.0
05 04:35 Calm 10.00 Fair CLR 72.5 68.2 86% 29.96 0.0
05 04:15 SW 5 10.00 Fair CLR 72.5 68.2 86% 29.95 0.0
05 03:55 SW 6 10.00 Fair CLR 72.5 68 86% 29.95 0.0
05 03:35 SW 6 10.00 Fair CLR 73 68 84% 29.94 0.0
05 03:15 SW 8 10.00 Fair CLR 72.7 68.2 86% 29.95 0.0
05 02:55 S 3 10.00 Fair CLR 73 68 84% 29.96 0.0
05 02:35 S 5 10.00 Fair CLR 73.2 68 84% 29.97 0.0
05 02:15 S 5 10.00 Fair CLR 71.6 68.5 90% 29.98 0.0
05 01:55 SE 3 10.00 Fair CLR 72.9 68.4 82 72.9 86% 29.99 0.0
05 01:35 Calm 10.00 Fair CLR 73.6 68 83% 30 0.0
05 01:15 Calm 10.00 Fair CLR 73.8 68.4 83% 30 0.0
05 00:55 S 3 10.00 Fair CLR 74.3 68.4 82% 30 0.0
05 00:35 SW 3 10.00 Fair CLR 74.7 68.4 81% 30 0.0
05 00:15 SW 3 10.00 Fair CLR 75 68.5 80% 76 30 0.0
04 23:55 SW 5 10.00 Fair CLR 75.2 68.7 80% 76 30 0.0
04 23:35 Calm 10.00 Fair CLR 76.1 68.4 77% 77 30 0.0
04 23:15 Calm 10.00 Fair CLR 77.4 68.2 73% 79 30 0.0
04 22:55 Calm 10.00 Fair CLR 76.1 68.4 77% 77 30 0.0
04 22:35 Calm 10.00 Fair CLR 77.9 68.2 72% 80 30 0.0
04 22:15 Calm 10.00 Fair CLR 79.7 68.4 68% 82 30 0.0
04 21:55 Calm 10.00 Fair CLR 81.3 68 64% 84 30 0.0
04 21:35 NE 3 10.00 Fair CLR 81.7 68 63% 85 30 0.0
04 21:15 Calm 10.00 Fair CLR 79 68 69% 81 29.99 0.0
04 20:55 N 5 10.00 Fair CLR 81.7 68 63% 85 29.98 0.0
04 20:35 NW 7 10.00 Fair CLR 81.5 67.6 63% 84 29.97 0.0
04 20:15 NW 6 10.00 Partly Cloudy SCT002 80.6 68.4 66% 83 29.97 0.0
04 19:55 NW 5 10.00 Fair CLR 81.5 69.1 96.6 81.5 66% 85 29.96 0.0
04 19:35 SW 7 10.00 Fair CLR 82 68.9 65% 85 29.96 0.0
04 19:15 S 9 10.00 Fair CLR 83.8 67.6 58% 87 29.94 0.0
04 18:55 S 6 10.00 Fair CLR 86.7 70.2 58% 92 29.95 0.0
04 18:35 S 6 10.00 Fair CLR 90.3 71.8 55% 97 29.96 0.0
04 18:15 S 5 10.00 Fair CLR 92.3 72.7 53% 101 29.99 0.0
04 17:55 S 7 10.00 Partly Cloudy SCT002 SCT100 92.5 70.3 49% 99 29.99 0.0
04 17:35 Calm 10.00 Mostly Cloudy SCT002 BKN110 91.8 70.2 49% 98 29.98 0.0
04 17:15 N 5 10.00 Mostly Cloudy SCT002 SCT065 BKN090 92.7 69.1 46% 98 29.99 0.0
04 16:55 N 7 10.00 Overcast BKN002 BKN065 OVC075 95.4 67.8 41% 100 29.98 0.0
04 16:35 N 8 10.00 Overcast BKN002 BKN065 OVC075 94.6 68 42% 99 29.98 0.0
04 16:15 N 9 10.00 Mostly Cloudy BKN002 96.3 67.8 40% 101 29.98 0.0
04 15:55 NE 6 10.00 Mostly Cloudy SCT002 BKN060 95.9 68.9 41% 102 29.98 0.0
04 15:35 S 6 10.00 Mostly Cloudy SCT002 SCT060 BKN075 94.3 70.5 46% 101 30 0.0
04 15:15 Calm 10.00 Mostly Cloudy BKN002 BKN075 93.6 69.4 45% 99 30.01 0.0
04 14:55 NE 6 10.00 Mostly Cloudy SCT002 BKN060 BKN100 88.7 69.4 53% 93 30.03 0.0
04 14:35 N 15 G 20 10.00 Overcast SCT002 BKN070 OVC120 87.8 70.2 56% 93 30.04 0.0
04 14:15 NE 12 G 22 10.00 Mostly Cloudy SCT002 BKN060 BKN080 87.8 70.3 56% 93 30.02 0.0
04 13:55 NW 16 G 23 10.00 Mostly Cloudy SCT002 BKN060 BKN070 97.9 68.4 98.4 75.6 38% 104 30.02 0.0
04 13:35 W 12 G 17 10.00 Partly Cloudy SCT002 SCT060 SCT070 97.2 69.1 40% 103 30.03 0.0
04 13:15 NW 8 G 18 10.00 Partly Cloudy SCT002 SCT060 97 69.3 41% 103 30.04 0.0
04 12:55 NW 8 10.00 Partly Cloudy SCT002 94.8 68.4 42% 100 30.04 0.0
04 12:35 NW 9 10.00 Fair CLR 95.4 69.3 43% 101 30.05 0.0
04 12:15 NW 10 10.00 Partly Cloudy SCT002 94.3 68.9 44% 100 30.05 0.0
04 11:15 NW 7 10.00 Fair CLR 91.9 71.6 52% 99 30.05 0.0
04 10:55 W 6 10.00 Fair CLR 90.5 72.3 55% 98 30.06 0.0
04 10:35 W 6 10.00 Fair CLR 89.1 72.7 59% 97 30.05 0.0
04 10:15 W 5 10.00 Fair CLR 88.3 73.2 61% 96 30.05 0.0
04 09:55 W 3 10.00 Fair CLR 86.7 73.4 65% 94 30.05 0.0
04 09:35 W 6 10.00 Fair CLR 84.6 73 68% 91 30.06 0.0
04 09:15 W 3 10.00 Fair CLR 82.4 72.7 73% 88 30.06 0.0
04 08:55 SW 3 10.00 Fair CLR 80.8 72.7 76% 85 30.06 0.0
04 08:35 W 3 10.00 Fair CLR 79 72.7 81% 82 30.06 0.0
04 08:15 SW 6 10.00 Fair CLR 76.8 72 85% 78 30.05 0.0
04 07:55 SW 6 10.00 Fair CLR 75.4 71.8 78.8 72.9 89% 75 30.04 0.0
04 07:35 SW 9 10.00 Fair CLR 74.7 72 91% 30.04 0.0
04 07:15 SW 7 10.00 Fair CLR 74.8 72.3 92% 30.03 0.0
04 06:55 SW 3 10.00 Fair CLR 74.7 72 91% 30.03 0.0
04 06:35 SW 5 10.00 Fair CLR 74.8 72 91% 30.03 0.0
04 06:15 S 5 10.00 Fair CLR 73.9 72 94% 30.03 0.0
04 05:55 S 5 10.00 Fair CLR 73 70.9 93% 30.03 0.0
04 05:35 Calm 10.00 Fair CLR 74.7 72.3 92% 30.03 0.0
04 05:15 S 3 10.00 Fair CLR 74.5 71.8 91% 30.02 0.0
04 04:55 Calm 10.00 Fair CLR 74.3 71.8 92% 30.02 0.0
04 04:35 Calm 10.00 Fair CLR 74.8 71.8 90% 30.02 0.0
04 04:15 Calm 10.00 Fair CLR 73.6 70.7 91% 30.02 0.0
04 03:55 Calm 10.00 Fair CLR 74.1 70.7 89% 30.02 0.0
04 03:35 Calm 10.00 Fair CLR 76.6 70.9 82% 78 30.02 0.0
04 03:15 Calm 10.00 Fair CLR 76.3 70.9 83% 77 30.02 0.0
04 02:55 Calm 10.00 Fair CLR 77 70.7 81% 79 30.02 0.0
04 02:35 SW 3 10.00 Fair CLR 77.4 70.7 80% 79 30.03 0.0
04 02:15 Calm 10.00 Fair CLR 77.5 70.7 80% 79 30.03 0.0
04 01:55 SW 5 10.00 Fair CLR 79 70.7 88 78.4 76% 82 30.04 0.0
04 01:35 SW 6 10.00 Fair CLR 78.8 71.1 77% 82 30.04 0.0
04 01:15 S 5 10.00 Fair CLR 78.8 71.1 77% 82 30.04 0.0
04 00:55 SW 6 10.00 Fair CLR 79.2 70.9 76% 82 30.04 0.0
04 00:35 SW 7 10.00 Fair CLR 79.3 70.3 74% 82 30.04 0.0
04 00:15 SW 5 10.00 Fair CLR 79.7 69.8 72% 83 30.04 0.0
03 23:55 SW 6 10.00 Fair CLR 79.9 69.8 71% 83 30.04 0.0
03 23:35 SW 5 10.00 Fair CLR 80.4 69.8 70% 84 30.04 0.0
03 23:15 SW 3 10.00 Fair CLR 81.5 69.8 68% 85 30.04 0.0
03 22:55 W 5 10.00 Fair CLR 82 69.4 66% 86 30.04 0.0
03 22:35 W 5 10.00 Fair CLR 82.9 69.3 63% 87 30.05 0.0
03 22:15 W 3 10.00 Fair CLR 83.5 69.1 62% 87 30.05 0.0
03 21:55 Calm 10.00 Fair CLR 84.6 68.9 59% 88 30.05 0.0
03 21:35 W 3 10.00 Fair CLR 85.6 68.9 57% 90 30.05 0.0
03 21:15 W 3 10.00 Fair CLR 86.7 68.9 55% 91 30.04 0.0
03 20:55 W 3 10.00 Fair CLR 86.9 68.5 54% 91 30.04 0.0
03 20:35 Calm 10.00 Fair CLR 87.1 68.9 55% 91 30.03 0.0
03 20:15 W 3 10.00 Fair CLR 87.4 68.9 54% 92 30.02 0.0
03 19:55 W 3 10.00 Fair CLR 88.2 68.9 98.4 88.2 53% 92 30.02 0.0
03 19:35 Calm 10.00 Fair CLR 89.6 69.1 51% 94 30.02 0.0
03 19:15 W 5 10.00 Fair CLR 91.2 68.9 48% 96 30.01 0.0
03 18:55 W 8 10.00 Fair CLR 92.7 68.4 45% 97 30.01 0.0
03 18:35 W 7 10.00 Fair CLR 94.1 68 43% 99 30.01 0.0
03 18:15 W 9 10.00 Fair CLR 94.5 67.8 42% 99 30 0.0
03 17:55 W 12 G 16 10.00 Fair CLR 95.2 67.1 40% 99 30 0.0
03 17:35 W 12 10.00 Fair CLR 95.9 67.1 39% 100 30 0.0
03 17:15 W 10 10.00 Fair CLR 97 68.4 39% 102 30 0.0
03 16:55 W 13 10.00 Fair CLR 97.2 67.6 38% 102 30 0.0
03 16:35 W 12 G 16 10.00 Fair CLR 97.2 67.1 37% 102 30.02 0.0
03 16:15 W 7 10.00 Fair CLR 97.5 66.9 37% 102 30.02 0.0
Date Time (edt) Wind (mph) Vis. (mi.) Weather Sky Cond. Air Dwpt Max. Min. Relative Humidity Wind Chill (°F) Heat Index (°F) altimeter (in) sea level (mb) 1 hr 3 hr 6 hr
6 hour
Temperature (ºF) Pressure Precipitation (in)